createdAt,value
2018-04-29T00:01:42.686Z,72.10
2018-04-29T00:04:11.430Z,76.90
2018-04-29T00:06:38.965Z,76.90
2018-04-29T00:09:06.539Z,78.60
2018-04-29T00:11:34.084Z,80.40
2018-04-29T00:14:01.639Z,81.60
2018-04-29T00:16:29.808Z,82.60
2018-04-29T00:18:58.230Z,84.40
2018-04-29T00:21:26.262Z,85.20
2018-04-29T00:23:53.818Z,85.80
2018-04-29T00:26:21.648Z,87.00
2018-04-29T00:28:49.624Z,88.80
2018-04-29T00:31:17.929Z,89.70
2018-04-29T00:33:45.512Z,89.70
2018-04-29T00:36:13.043Z,90.30
2018-04-29T00:38:44.994Z,90.60
2018-04-29T00:41:12.527Z,90.90
2018-04-29T00:43:40.306Z,90.90
2018-04-29T00:46:09.527Z,91.00
2018-04-29T00:48:37.126Z,91.00
2018-04-29T00:51:04.668Z,90.70
2018-04-29T00:53:32.294Z,91.00
2018-04-29T00:55:59.853Z,91.30
2018-04-29T00:58:27.401Z,91.40
2018-04-29T01:00:55.684Z,91.70
2018-04-29T01:03:24.482Z,92.00
2018-04-29T01:05:52.230Z,92.00
2018-04-29T01:08:20.267Z,92.70
2018-04-29T01:10:48.460Z,92.70
2018-04-29T01:13:16.133Z,93.20
2018-04-29T01:15:44.092Z,92.70
2018-04-29T01:18:12.066Z,93.00
2018-04-29T01:20:40.102Z,92.80
2018-04-29T01:23:07.736Z,92.80
2018-04-29T01:25:35.278Z,93.00
2018-04-29T01:28:02.816Z,93.20
2018-04-29T01:30:30.388Z,93.00
2018-04-29T01:32:57.990Z,93.00
2018-04-29T01:35:25.552Z,93.20
2018-04-29T01:37:54.187Z,93.50
2018-04-29T01:40:22.477Z,93.60
2018-04-29T01:42:50.102Z,93.80
2018-04-29T01:45:17.657Z,93.90
2018-04-29T01:47:46.015Z,94.10
2018-04-29T01:50:14.532Z,93.90
2018-04-29T01:52:42.170Z,93.90
2018-04-29T01:55:09.777Z,93.70
2018-04-29T01:57:37.580Z,93.70
2018-04-29T02:00:05.157Z,93.70
2018-04-29T02:02:32.730Z,93.50
2018-04-29T02:05:00.260Z,93.90
2018-04-29T02:07:28.597Z,94.10
2018-04-29T02:09:56.309Z,94.50
2018-04-29T02:12:23.959Z,94.80
2018-04-29T02:14:51.648Z,94.90
2018-04-29T02:17:19.229Z,95.00
2018-04-29T02:19:46.816Z,95.00
2018-04-29T02:22:14.767Z,95.20
2018-04-29T02:24:42.862Z,95.30
2018-04-29T02:27:10.504Z,95.30
2018-04-29T02:29:38.112Z,95.30
2018-04-29T02:32:05.879Z,95.60
2018-04-29T02:34:33.592Z,95.90
2018-04-29T02:37:01.352Z,95.90
2018-04-29T02:39:30.228Z,96.80
2018-04-29T02:41:57.803Z,96.80
2018-04-29T02:44:25.384Z,97.20
2018-04-29T02:46:53.419Z,97.30
2018-04-29T02:49:20.997Z,97.30
2018-04-29T02:51:49.008Z,96.90
2018-04-29T02:54:16.586Z,96.90
2018-04-29T02:56:44.231Z,97.20
2018-04-29T02:59:11.795Z,97.20
2018-04-29T03:01:39.359Z,96.90
2018-04-29T03:04:06.915Z,96.70
2018-04-29T03:06:34.906Z,96.60
2018-04-29T03:09:02.487Z,96.60
2018-04-29T03:11:30.090Z,96.60
2018-04-29T03:13:57.703Z,97.20
2018-04-29T03:16:25.339Z,97.70
2018-04-29T03:18:53.770Z,97.60
2018-04-29T03:21:21.757Z,98.40
2018-04-29T03:23:49.323Z,98.40
2018-04-29T03:26:16.946Z,99.10
2018-04-29T03:28:45.303Z,99.20
2018-04-29T03:31:12.879Z,99.20
2018-04-29T03:33:40.880Z,98.90
2018-04-29T03:36:08.524Z,98.90
2018-04-29T03:38:36.097Z,98.40
2018-04-29T03:41:04.388Z,98.10
2018-04-29T03:43:32.674Z,97.90
2018-04-29T03:46:00.248Z,98.00
2018-04-29T03:48:27.799Z,98.50
2018-04-29T03:50:56.323Z,99.10
2018-04-29T03:53:23.992Z,99.20
2018-04-29T03:55:51.592Z,99.40
2018-04-29T03:58:31.132Z,99.40
2018-04-29T04:04:07.264Z,99.60
2018-04-29T04:06:34.860Z,99.40
2018-04-29T04:09:02.871Z,99.20
2018-04-29T04:11:30.519Z,99.20
2018-04-29T04:13:58.127Z,99.80
2018-04-29T04:16:25.756Z,99.80
2018-04-29T04:18:53.332Z,99.80
2018-04-29T04:21:20.873Z,99.80
2018-04-29T04:23:48.507Z,99.80
2018-04-29T04:26:16.524Z,99.80
2018-04-29T04:28:44.113Z,99.80
2018-04-29T04:31:12.080Z,99.80
2018-04-29T04:33:40.144Z,99.80
2018-04-29T04:36:08.152Z,99.80
2018-04-29T04:38:35.740Z,99.80
2018-04-29T04:41:04.171Z,99.80
2018-04-29T04:43:32.189Z,99.80
2018-04-29T04:45:59.754Z,99.80
2018-04-29T04:48:27.351Z,98.70
2018-04-29T04:50:55.031Z,97.00
2018-04-29T04:53:22.625Z,95.90
2018-04-29T04:55:51.165Z,95.50
2018-04-29T04:58:19.184Z,96.00
2018-04-29T05:00:46.800Z,96.00
2018-04-29T05:03:14.803Z,97.20
2018-04-29T05:05:42.391Z,97.20
2018-04-29T05:08:10.007Z,97.20
2018-04-29T05:10:37.596Z,97.20
2018-04-29T05:13:05.139Z,97.20
2018-04-29T05:15:32.720Z,97.50
2018-04-29T05:18:00.292Z,97.60
2018-04-29T05:20:27.924Z,97.30
2018-04-29T05:22:55.549Z,97.40
2018-04-29T05:25:23.320Z,97.50
2018-04-29T05:27:51.301Z,97.50
2018-04-29T05:30:19.222Z,97.50
2018-04-29T05:32:46.860Z,97.20
2018-04-29T05:35:21.834Z,97.20
2018-04-29T05:37:49.488Z,96.70
2018-04-29T05:40:17.069Z,96.40
2018-04-29T05:42:45.147Z,95.90
2018-04-29T05:45:13.183Z,94.80
2018-04-29T05:47:40.856Z,94.80
2018-04-29T05:50:08.455Z,93.20
2018-04-29T05:52:36.016Z,92.50
2018-04-29T05:55:03.632Z,91.10
2018-04-29T05:57:31.249Z,89.40
2018-04-29T05:59:58.909Z,87.60
2018-04-29T06:02:26.515Z,88.10
2018-04-29T06:04:54.123Z,88.10
2018-04-29T06:07:21.746Z,87.60
2018-04-29T06:09:50.641Z,88.30
2018-04-29T06:12:18.595Z,87.70
2018-04-29T06:14:46.214Z,87.70
2018-04-29T06:17:13.876Z,88.20
2018-04-29T06:19:42.739Z,87.10
2018-04-29T06:22:11.514Z,87.10
2018-04-29T06:24:39.588Z,87.90
2018-04-29T06:27:07.273Z,87.90
2018-04-29T06:29:37.784Z,88.50
2018-04-29T06:32:06.735Z,88.90
2018-04-29T06:34:34.353Z,89.70
2018-04-29T06:37:01.930Z,91.60
2018-04-29T06:39:30.181Z,91.60
2018-04-29T06:41:57.765Z,91.90
2018-04-29T06:44:25.391Z,92.60
2018-04-29T06:46:53.370Z,94.40
2018-04-29T06:49:21.361Z,95.90
2018-04-29T06:51:48.939Z,95.90
2018-04-29T06:54:16.645Z,96.60
2018-04-29T06:56:44.660Z,94.70
2018-04-29T06:59:12.217Z,94.70
2018-04-29T07:01:40.648Z,95.20
2018-04-29T07:04:08.186Z,95.50
2018-04-29T07:06:35.755Z,96.20
2018-04-29T07:09:03.304Z,95.50
2018-04-29T07:11:30.936Z,94.80
2018-04-29T07:13:58.559Z,94.90
2018-04-29T07:16:26.517Z,94.00
2018-04-29T07:18:54.598Z,91.80
2018-04-29T07:21:22.596Z,91.90
2018-04-29T07:23:51.195Z,89.70
2018-04-29T07:26:18.772Z,89.70
2018-04-29T07:28:46.433Z,89.10
2018-04-29T07:31:14.901Z,87.90
2018-04-29T07:33:42.518Z,86.90
2018-04-29T07:36:23.105Z,86.90
2018-04-29T07:39:00.026Z,86.60
2018-04-29T07:42:53.985Z,85.60
2018-04-29T07:47:59.283Z,82.20
2018-04-29T07:50:27.752Z,81.50
2018-04-29T07:52:58.886Z,82.20
2018-04-29T07:55:26.511Z,83.50
2018-04-29T07:57:55.025Z,84.00
2018-04-29T08:00:23.037Z,83.50
2018-04-29T08:02:57.635Z,82.80
2018-04-29T08:05:26.989Z,82.70
2018-04-29T08:07:57.398Z,81.70
2018-04-29T08:10:25.069Z,79.90
2018-04-29T08:12:53.855Z,80.10
2018-04-29T08:15:21.895Z,81.30
2018-04-29T08:18:08.324Z,81.30
2018-04-29T08:20:36.317Z,85.00
2018-04-29T08:23:03.891Z,85.00
2018-04-29T08:25:31.524Z,86.50
2018-04-29T08:27:59.476Z,87.30
2018-04-29T08:30:27.450Z,88.40
2018-04-29T08:32:56.034Z,88.30
2018-04-29T08:35:23.968Z,89.40
2018-04-29T08:37:51.557Z,89.40
2018-04-29T08:40:19.179Z,88.00
2018-04-29T08:42:46.867Z,86.90
2018-04-29T08:45:14.779Z,86.90
2018-04-29T08:47:48.015Z,87.60
2018-04-29T08:50:15.734Z,89.10
2018-04-29T08:52:43.236Z,88.70
2018-04-29T08:55:11.751Z,89.70
2018-04-29T08:57:41.252Z,87.20
2018-04-29T09:00:09.210Z,87.60
2018-04-29T09:02:36.809Z,87.60
2018-04-29T09:05:04.380Z,87.80
2018-04-29T09:07:31.983Z,88.10
2018-04-29T09:09:59.534Z,88.20
2018-04-29T09:12:27.168Z,88.00
2018-04-29T09:14:54.825Z,88.50
2018-04-29T09:17:22.437Z,88.90
2018-04-29T09:19:50.455Z,87.30
2018-04-29T09:22:21.565Z,87.20
2018-04-29T09:24:50.759Z,87.30
2018-04-29T09:27:20.292Z,84.80
2018-04-29T09:29:48.747Z,84.90
2018-04-29T09:32:16.720Z,84.70
2018-04-29T09:34:44.984Z,83.90
2018-04-29T09:37:13.099Z,82.90
2018-04-29T09:39:40.995Z,82.90
2018-04-29T09:42:08.581Z,82.90
2018-04-29T09:44:36.206Z,81.60
2018-04-29T09:47:03.755Z,78.90
2018-04-29T09:49:31.375Z,78.40
2018-04-29T09:51:59.415Z,76.90
2018-04-29T09:54:27.081Z,76.90
2018-04-29T09:56:54.722Z,76.30
2018-04-29T09:59:22.309Z,76.70
2018-04-29T10:01:52.656Z,77.10
2018-04-29T10:04:20.650Z,78.20
2018-04-29T10:06:48.209Z,78.30
2018-04-29T10:09:15.759Z,79.60
2018-04-29T10:11:43.332Z,80.60
2018-04-29T10:14:10.919Z,80.50
2018-04-29T10:16:38.500Z,79.80
2018-04-29T10:19:06.038Z,78.00
2018-04-29T10:21:33.629Z,79.40
2018-04-29T10:24:01.185Z,76.00
2018-04-29T10:26:28.819Z,76.20
2018-04-29T10:28:56.409Z,74.60
2018-04-29T10:31:24.000Z,74.20
2018-04-29T10:33:54.116Z,76.50
2018-04-29T10:36:25.093Z,73.90
2018-04-29T10:38:52.834Z,71.50
2018-04-29T10:41:21.107Z,70.70
2018-04-29T10:43:48.824Z,70.30
2018-04-29T10:46:16.856Z,68.10
2018-04-29T10:48:44.468Z,68.10
2018-04-29T10:51:12.533Z,68.90
2018-04-29T10:53:40.108Z,68.80
2018-04-29T10:56:08.122Z,65.20
2018-04-29T10:58:35.845Z,65.20
2018-04-29T11:01:03.563Z,66.00
2018-04-29T11:03:31.193Z,67.40
2018-04-29T11:05:58.890Z,66.20
2018-04-29T11:08:26.441Z,65.30
2018-04-29T11:10:54.769Z,67.60
2018-04-29T11:13:23.125Z,63.00
2018-04-29T11:15:51.316Z,64.30
2018-04-29T11:18:20.026Z,62.60
2018-04-29T11:20:47.652Z,62.60
2018-04-29T11:23:15.314Z,63.00
2018-04-29T11:25:42.958Z,64.20
2018-04-29T11:28:10.754Z,61.20
2018-04-29T11:30:38.476Z,60.70
2018-04-29T11:33:06.082Z,58.10
2018-04-29T11:35:34.042Z,59.20
2018-04-29T11:38:01.833Z,61.60
2018-04-29T11:40:30.048Z,60.20
2018-04-29T11:42:57.569Z,58.80
2018-04-29T11:45:25.143Z,60.30
2018-04-29T11:47:53.033Z,59.30
2018-04-29T11:50:20.561Z,58.70
2018-04-29T11:52:48.113Z,56.30
2018-04-29T11:55:15.671Z,52.80
2018-04-29T11:57:43.214Z,48.10
2018-04-29T12:00:11.199Z,43.70
2018-04-29T12:02:38.888Z,43.70
2018-04-29T12:05:06.396Z,42.20
2018-04-29T12:07:34.373Z,40.80
2018-04-29T12:10:02.354Z,40.20
2018-04-29T12:12:29.895Z,40.20
2018-04-29T12:14:57.874Z,37.90
2018-04-29T12:17:25.482Z,38.00
2018-04-29T12:19:52.994Z,36.90
2018-04-29T12:22:20.544Z,38.60
2018-04-29T12:24:49.352Z,39.70
2018-04-29T12:27:17.715Z,39.70
2018-04-29T12:29:45.670Z,37.90
2018-04-29T12:32:13.211Z,37.90
2018-04-29T12:34:40.942Z,37.60
2018-04-29T12:37:08.561Z,38.10
2018-04-29T12:39:36.123Z,36.50
2018-04-29T12:42:04.170Z,37.50
2018-04-29T12:44:31.774Z,37.50
2018-04-29T12:46:59.772Z,37.50
2018-04-29T12:49:27.349Z,37.50
2018-04-29T12:51:54.869Z,35.90
2018-04-29T12:54:22.433Z,36.10
2018-04-29T12:56:50.052Z,36.00
2018-04-29T12:59:18.241Z,36.70
2018-04-29T13:01:46.176Z,35.90
2018-04-29T13:04:13.751Z,35.90
2018-04-29T13:06:41.762Z,37.20
2018-04-29T13:09:09.310Z,38.20
2018-04-29T13:11:37.666Z,40.50
2018-04-29T13:14:05.224Z,41.00
2018-04-29T13:16:33.196Z,46.60
2018-04-29T13:19:00.757Z,46.60
2018-04-29T13:21:28.723Z,44.10
2018-04-29T13:23:56.359Z,44.10
2018-04-29T13:26:23.932Z,42.10
2018-04-29T13:28:51.473Z,42.50
2018-04-29T13:31:20.008Z,41.40
2018-04-29T13:33:47.925Z,38.90
2018-04-29T13:36:16.155Z,38.00
2018-04-29T13:38:43.715Z,38.00
2018-04-29T13:41:11.371Z,38.00
2018-04-29T13:43:39.002Z,39.20
2018-04-29T13:46:06.576Z,40.70
2018-04-29T13:48:34.589Z,39.90
2018-04-29T13:51:02.113Z,39.90
2018-04-29T13:53:30.043Z,45.10
2018-04-29T13:55:58.431Z,45.10
2018-04-29T13:58:25.943Z,45.30
2018-04-29T14:00:53.559Z,45.60
2018-04-29T14:03:21.125Z,43.30
2018-04-29T14:05:48.965Z,42.40
2018-04-29T14:08:16.515Z,42.40
2018-04-29T14:10:45.993Z,41.80
2018-04-29T14:13:13.588Z,41.70
2018-04-29T14:15:41.157Z,42.50
2018-04-29T14:18:08.745Z,45.00
2018-04-29T14:20:36.268Z,46.20
2018-04-29T14:23:03.828Z,48.30
2018-04-29T14:25:31.369Z,50.10
2018-04-29T14:27:58.934Z,49.10
2018-04-29T14:30:26.475Z,47.70
2018-04-29T14:32:54.513Z,48.10
2018-04-29T14:35:22.447Z,48.70
2018-04-29T14:37:49.999Z,48.70
2018-04-29T14:40:17.563Z,50.40
2018-04-29T14:42:45.132Z,50.30
2018-04-29T14:45:14.518Z,49.10
2018-04-29T14:47:46.391Z,45.10
2018-04-29T14:50:14.527Z,42.40
2018-04-29T14:52:42.294Z,41.90
2018-04-29T14:55:09.899Z,40.70
2018-04-29T14:57:37.429Z,39.20
2018-04-29T15:00:05.784Z,39.00
2018-04-29T15:02:33.383Z,36.60
2018-04-29T15:05:00.952Z,35.20
2018-04-29T15:07:28.520Z,34.50
2018-04-29T15:09:56.102Z,35.70
2018-04-29T15:12:24.903Z,37.30
2018-04-29T15:14:52.451Z,37.30
2018-04-29T15:17:19.996Z,39.70
2018-04-29T15:19:49.787Z,39.60
2018-04-29T15:22:17.337Z,39.60
2018-04-29T15:24:45.708Z,39.30
2018-04-29T15:27:13.356Z,40.50
2018-04-29T15:29:41.723Z,41.80
2018-04-29T15:32:09.549Z,40.60
2018-04-29T15:34:37.151Z,41.10
2018-04-29T15:37:05.672Z,41.50
2018-04-29T15:39:33.268Z,42.00
2018-04-29T15:42:01.249Z,42.90
2018-04-29T15:44:28.790Z,42.90
2018-04-29T15:46:56.851Z,44.10
2018-04-29T15:49:24.824Z,45.50
2018-04-29T15:51:52.375Z,45.50
2018-04-29T15:54:20.352Z,47.60
2018-04-29T15:56:48.336Z,48.80
2018-04-29T15:59:16.341Z,50.10
2018-04-29T16:01:44.850Z,50.10
2018-04-29T16:04:12.452Z,51.20
2018-04-29T16:06:40.389Z,52.20
2018-04-29T16:09:08.031Z,52.20
2018-04-29T16:11:35.587Z,53.00
2018-04-29T16:14:03.805Z,52.80
2018-04-29T16:16:31.824Z,51.70
2018-04-29T16:18:59.534Z,51.60
2018-04-29T16:21:27.281Z,52.30
2018-04-29T16:23:54.818Z,52.60
2018-04-29T16:26:26.013Z,52.20
2018-04-29T16:28:53.800Z,52.20
2018-04-29T16:31:21.394Z,53.00
2018-04-29T16:33:48.997Z,53.20
2018-04-29T16:36:16.960Z,53.10
2018-04-29T16:38:45.176Z,53.30
2018-04-29T16:41:12.746Z,53.30
2018-04-29T16:43:40.491Z,53.40
2018-04-29T16:46:08.919Z,52.90
2018-04-29T16:48:36.513Z,52.70
2018-04-29T16:51:04.097Z,53.40
2018-04-29T16:53:31.655Z,52.60
2018-04-29T16:55:59.226Z,52.00
2018-04-29T16:58:26.769Z,52.20
2018-04-29T17:00:54.331Z,53.20
2018-04-29T17:03:21.871Z,53.70
2018-04-29T17:05:49.456Z,53.90
2018-04-29T17:08:17.565Z,55.30
2018-04-29T17:10:46.068Z,55.60
2018-04-29T17:13:13.627Z,56.10
2018-04-29T17:15:41.563Z,54.40
2018-04-29T17:18:09.157Z,54.40
2018-04-29T17:20:36.708Z,55.20
2018-04-29T17:23:04.640Z,57.60
2018-04-29T17:25:32.239Z,57.60
2018-04-29T17:27:59.800Z,57.90
2018-04-29T17:30:27.355Z,59.00
2018-04-29T17:32:55.283Z,59.50
2018-04-29T17:35:23.323Z,59.50
2018-04-29T17:37:50.875Z,58.30
2018-04-29T17:40:18.477Z,58.00
2018-04-29T17:42:46.046Z,58.50
2018-04-29T17:45:13.613Z,57.80
2018-04-29T17:47:41.197Z,58.90
2018-04-29T17:50:09.140Z,59.90
2018-04-29T17:52:36.735Z,59.90
2018-04-29T17:55:04.739Z,60.40
2018-04-29T17:57:32.817Z,60.40
2018-04-29T18:00:00.420Z,61.10
2018-04-29T18:02:28.451Z,62.50
2018-04-29T18:04:56.211Z,62.90
2018-04-29T18:07:24.565Z,63.40
2018-04-29T18:09:52.124Z,63.00
2018-04-29T18:12:19.691Z,64.00
2018-04-29T18:14:47.267Z,64.20
2018-04-29T18:17:14.855Z,64.30
2018-04-29T18:19:42.407Z,64.20
2018-04-29T18:22:10.391Z,64.50
2018-04-29T18:24:38.022Z,64.70
2018-04-29T18:27:05.582Z,65.20
2018-04-29T18:29:33.230Z,65.20
2018-04-29T18:32:00.772Z,65.80
2018-04-29T18:34:28.323Z,65.80
2018-04-29T18:36:56.287Z,66.80
2018-04-29T18:39:24.215Z,67.60
2018-04-29T18:41:52.531Z,67.70
2018-04-29T18:44:20.099Z,68.40
2018-04-29T18:46:48.841Z,68.70
2018-04-29T18:49:16.474Z,68.70
2018-04-29T18:51:44.815Z,68.80
2018-04-29T18:54:12.458Z,69.20
2018-04-29T18:56:40.839Z,69.40
2018-04-29T18:59:08.511Z,69.40
2018-04-29T19:01:37.264Z,69.60
2018-04-29T19:36:18.161Z,71.20
2018-04-29T19:41:52.956Z,71.80
2018-04-29T19:44:22.922Z,72.60
2018-04-29T19:46:56.684Z,72.60
2018-04-29T19:52:32.494Z,73.00
2018-04-29T19:55:07.981Z,72.90
2018-04-29T19:57:42.759Z,73.00
2018-04-29T20:00:15.431Z,72.90
2018-04-29T20:05:27.043Z,72.90
2018-04-29T20:10:32.191Z,72.50
2018-04-29T20:13:00.464Z,72.60
2018-04-29T20:15:29.314Z,72.50
2018-04-29T20:17:57.150Z,72.30
2018-04-29T20:20:25.404Z,72.20
2018-04-29T20:22:53.575Z,72.30
2018-04-29T20:25:21.668Z,72.10
2018-04-29T20:27:54.453Z,72.10
2018-04-29T20:30:22.522Z,72.20
2018-04-29T20:32:50.601Z,72.30
2018-04-29T20:35:18.704Z,72.10
2018-04-29T20:37:46.711Z,72.40
2018-04-29T20:40:16.380Z,72.00
2018-04-29T20:42:44.467Z,72.00
2018-04-29T20:45:12.542Z,72.00
2018-04-29T20:47:41.040Z,71.80
2018-04-29T20:50:09.476Z,71.80
